createdAt,value
2018-02-22T00:00:49.151Z,82.14
2018-02-22T00:01:38.193Z,82.68
2018-02-22T00:02:27.248Z,82.78
2018-02-22T00:03:16.322Z,82.92
2018-02-22T00:04:05.377Z,83.04
2018-02-22T00:04:54.449Z,83.08
2018-02-22T00:05:43.503Z,82.80
2018-02-22T00:06:32.567Z,82.87
2018-02-22T00:07:21.597Z,82.99
2018-02-22T00:08:10.643Z,81.98
2018-02-22T00:08:59.674Z,82.54
2018-02-22T00:09:48.720Z,82.52
2018-02-22T00:10:37.831Z,82.64
2018-02-22T00:11:26.880Z,82.43
2018-02-22T00:12:15.942Z,81.42
2018-02-22T00:13:05.017Z,81.77
2018-02-22T00:13:54.054Z,82.06
2018-02-22T00:14:43.092Z,82.09
2018-02-22T00:15:32.160Z,82.06
2018-02-22T00:16:21.395Z,81.67
2018-02-22T00:17:10.433Z,80.52
2018-02-22T00:17:59.489Z,80.57
2018-02-22T00:18:48.538Z,80.51
2018-02-22T00:19:37.589Z,80.77
2018-02-22T00:20:26.626Z,80.61
2018-02-22T00:21:15.677Z,79.81
2018-02-22T00:22:04.750Z,79.67
2018-02-22T00:22:53.839Z,80.04
2018-02-22T00:23:42.890Z,80.05
2018-02-22T00:24:31.936Z,80.09
2018-02-22T00:25:20.985Z,79.05
2018-02-22T00:26:10.040Z,78.95
2018-02-22T00:26:59.110Z,79.08
2018-02-22T00:27:48.402Z,79.35
2018-02-22T00:28:37.600Z,79.80
2018-02-22T00:29:26.648Z,79.92
2018-02-22T00:30:15.695Z,80.32
2018-02-22T00:31:04.783Z,80.69
2018-02-22T00:31:53.956Z,80.18
2018-02-22T00:32:42.974Z,80.37
2018-02-22T00:33:32.311Z,80.12
2018-02-22T00:34:22.982Z,80.15
2018-02-22T00:35:12.033Z,79.86
2018-02-22T00:36:01.085Z,79.79
2018-02-22T00:36:50.131Z,79.97
2018-02-22T00:37:39.182Z,80.07
2018-02-22T00:38:28.222Z,80.08
2018-02-22T00:39:17.314Z,80.36
2018-02-22T00:40:06.346Z,80.71
2018-02-22T00:40:55.430Z,79.85
2018-02-22T00:41:44.480Z,79.44
2018-02-22T00:42:33.547Z,79.17
2018-02-22T00:43:22.600Z,78.46
2018-02-22T00:44:11.884Z,78.12
2018-02-22T00:45:00.925Z,78.11
2018-02-22T00:45:49.982Z,77.74
2018-02-22T00:46:39.059Z,78.03
2018-02-22T00:47:28.105Z,78.41
2018-02-22T00:48:17.166Z,78.97
2018-02-22T00:49:06.211Z,79.29
2018-02-22T00:49:55.287Z,79.20
2018-02-22T00:50:44.332Z,79.66
2018-02-22T00:51:33.389Z,80.36
2018-02-22T00:52:22.538Z,80.98
2018-02-22T00:53:11.584Z,81.44
2018-02-22T00:54:00.626Z,81.88
2018-02-22T00:54:49.673Z,82.04
2018-02-22T00:55:38.733Z,81.65
2018-02-22T00:56:27.784Z,81.56
2018-02-22T00:57:16.858Z,80.97
2018-02-22T00:58:05.943Z,80.46
2018-02-22T00:58:55.007Z,80.51
2018-02-22T00:59:44.039Z,80.35
2018-02-22T01:00:33.081Z,80.49
2018-02-22T01:01:22.110Z,81.13
2018-02-22T01:02:11.166Z,80.82
2018-02-22T01:03:00.210Z,80.65
2018-02-22T01:03:49.324Z,80.99
2018-02-22T01:04:38.380Z,81.44
2018-02-22T01:05:27.427Z,81.74
2018-02-22T01:06:16.480Z,81.98
2018-02-22T01:07:05.538Z,82.08
2018-02-22T01:07:54.582Z,82.00
2018-02-22T01:08:43.657Z,82.11
2018-02-22T01:09:32.825Z,82.46
2018-02-22T01:10:21.881Z,81.25
2018-02-22T01:11:10.948Z,80.53
2018-02-22T01:11:59.995Z,80.46
2018-02-22T01:12:49.044Z,80.39
2018-02-22T01:13:38.097Z,80.72
2018-02-22T01:14:27.148Z,80.65
2018-02-22T01:15:16.280Z,79.83
2018-02-22T01:16:05.332Z,80.50
2018-02-22T01:16:54.376Z,80.63
2018-02-22T01:17:43.411Z,80.67
2018-02-22T01:18:32.467Z,80.92
2018-02-22T01:19:21.526Z,80.99
2018-02-22T01:20:10.571Z,81.58
2018-02-22T01:21:00.125Z,81.27
2018-02-22T01:21:49.162Z,81.30
2018-02-22T01:22:38.219Z,80.66
2018-02-22T01:23:27.284Z,80.04
2018-02-22T01:24:16.347Z,80.04
2018-02-22T01:25:05.404Z,79.01
2018-02-22T01:25:54.442Z,78.31
2018-02-22T01:26:43.590Z,78.05
2018-02-22T01:27:32.652Z,77.89
2018-02-22T01:28:21.690Z,77.75
2018-02-22T01:29:10.746Z,77.67
2018-02-22T01:29:59.797Z,77.70
2018-02-22T01:30:48.839Z,77.80
2018-02-22T01:31:37.887Z,77.86
2018-02-22T01:32:26.995Z,78.48
2018-02-22T01:33:16.052Z,77.95
2018-02-22T01:34:05.086Z,77.71
2018-02-22T01:34:55.887Z,78.05
2018-02-22T01:35:44.926Z,78.54
2018-02-22T01:36:33.969Z,78.44
2018-02-22T01:37:23.034Z,78.14
2018-02-22T01:38:12.112Z,78.67
2018-02-22T01:39:01.156Z,78.60
2018-02-22T01:39:50.208Z,79.38
2018-02-22T01:40:39.285Z,78.72
2018-02-22T01:41:28.337Z,79.53
2018-02-22T01:42:17.384Z,79.47
2018-02-22T01:43:06.420Z,78.78
2018-02-22T01:43:55.713Z,79.25
2018-02-22T01:44:44.764Z,79.87
2018-02-22T01:45:33.823Z,79.96
2018-02-22T01:46:22.875Z,79.88
2018-02-22T01:47:11.911Z,79.99
2018-02-22T01:48:00.946Z,80.01
2018-02-22T01:48:49.990Z,79.71
2018-02-22T01:49:39.145Z,79.56
2018-02-22T01:50:28.194Z,79.52
2018-02-22T01:51:17.246Z,79.50
2018-02-22T01:52:06.291Z,80.13
2018-02-22T01:52:55.338Z,80.12
2018-02-22T01:53:44.391Z,79.89
2018-02-22T01:54:33.436Z,80.04
2018-02-22T01:55:22.531Z,79.86
2018-02-22T01:56:11.580Z,79.66
2018-02-22T01:57:00.637Z,79.37
2018-02-22T01:57:49.673Z,79.62
2018-02-22T01:58:38.712Z,79.47
2018-02-22T01:59:27.772Z,79.56
2018-02-22T02:00:16.831Z,79.99
2018-02-22T02:01:06.111Z,79.85
2018-02-22T02:01:55.167Z,79.82
2018-02-22T02:02:44.214Z,80.15
2018-02-22T02:03:33.256Z,80.02
2018-02-22T02:04:22.319Z,79.75
2018-02-22T02:05:11.495Z,79.53
2018-02-22T02:06:00.549Z,79.79
2018-02-22T02:06:49.600Z,79.90
2018-02-22T02:07:38.639Z,79.49
2018-02-22T02:08:27.678Z,80.12
2018-02-22T02:09:16.719Z,80.49
2018-02-22T02:10:05.764Z,80.26
2018-02-22T02:10:54.893Z,80.50
2018-02-22T02:11:43.931Z,80.45
2018-02-22T02:12:32.963Z,80.45
2018-02-22T02:13:22.001Z,80.22
2018-02-22T02:14:11.072Z,80.13
2018-02-22T02:15:00.132Z,80.01
2018-02-22T02:15:49.218Z,80.00
2018-02-22T02:16:38.255Z,80.36
2018-02-22T02:17:27.304Z,80.32
2018-02-22T02:18:16.371Z,80.18
2018-02-22T02:19:05.406Z,79.95
2018-02-22T02:19:54.434Z,80.46
2018-02-22T02:20:43.544Z,80.50
2018-02-22T02:21:33.125Z,79.46
2018-02-22T02:22:22.193Z,79.52
2018-02-22T02:23:11.246Z,79.72
2018-02-22T02:24:00.291Z,79.86
2018-02-22T02:24:49.328Z,80.21
2018-02-22T02:25:38.381Z,80.37
2018-02-22T02:26:27.429Z,80.20
2018-02-22T02:27:16.604Z,79.96
2018-02-22T02:28:08.528Z,79.82
2018-02-22T02:28:57.587Z,79.89
2018-02-22T02:29:46.627Z,80.74
2018-02-22T02:30:35.673Z,80.93
2018-02-22T02:31:25.030Z,80.92
2018-02-22T02:32:14.076Z,80.84
2018-02-22T02:33:03.185Z,80.75
2018-02-22T02:33:52.236Z,80.55
2018-02-22T02:34:41.312Z,80.29
2018-02-22T02:35:30.384Z,80.11
2018-02-22T02:36:19.452Z,80.13
2018-02-22T02:37:08.490Z,79.61
2018-02-22T02:37:57.535Z,79.96
2018-02-22T02:38:46.869Z,79.88
2018-02-22T02:39:35.917Z,79.96
2018-02-22T02:40:24.961Z,79.97
2018-02-22T02:41:14.066Z,79.46
2018-02-22T02:42:03.128Z,79.80
2018-02-22T02:42:52.159Z,79.36
2018-02-22T02:43:41.199Z,79.51
2018-02-22T02:44:30.261Z,79.79
2018-02-22T02:45:19.319Z,79.29
2018-02-22T02:46:08.381Z,79.59
2018-02-22T02:46:57.520Z,78.87
2018-02-22T02:47:46.565Z,78.26
2018-02-22T02:48:35.627Z,78.44
2018-02-22T02:49:24.696Z,77.90
2018-02-22T02:50:13.730Z,77.70
2018-02-22T02:51:02.781Z,78.58
2018-02-22T02:51:51.828Z,79.23
2018-02-22T02:52:40.914Z,79.27
2018-02-22T02:53:29.971Z,79.55
2018-02-22T02:54:19.030Z,79.29
2018-02-22T02:55:08.111Z,79.45
2018-02-22T02:55:57.164Z,80.01
2018-02-22T02:56:46.235Z,79.07
2018-02-22T02:57:35.444Z,78.33
2018-02-22T02:58:24.708Z,78.25
2018-02-22T02:59:13.762Z,78.62
2018-02-22T03:00:02.810Z,78.21
2018-02-22T03:00:51.957Z,78.11
2018-02-22T03:01:40.996Z,78.63
2018-02-22T03:02:30.130Z,79.05
2018-02-22T03:03:19.196Z,79.33
2018-02-22T03:04:08.244Z,79.31
2018-02-22T03:04:57.315Z,79.58
2018-02-22T03:05:46.390Z,79.93
2018-02-22T03:06:35.433Z,80.12
2018-02-22T03:07:24.494Z,80.10
2018-02-22T03:08:13.581Z,79.04
2018-02-22T03:09:02.623Z,78.83
2018-02-22T03:09:51.679Z,79.21
2018-02-22T03:10:40.726Z,78.68
2018-02-22T03:11:29.779Z,78.45
2018-02-22T03:12:18.822Z,77.82
2018-02-22T03:13:07.864Z,78.02
2018-02-22T03:13:57.135Z,78.24
2018-02-22T03:14:46.180Z,77.86
2018-02-22T03:15:35.220Z,78.15
2018-02-22T03:16:24.296Z,78.19
2018-02-22T03:17:13.338Z,78.55
2018-02-22T03:18:02.394Z,78.53
2018-02-22T03:18:51.445Z,78.17
2018-02-22T03:19:40.555Z,77.95
2018-02-22T03:20:29.613Z,78.41
2018-02-22T03:21:18.664Z,78.23
2018-02-22T03:22:07.717Z,78.22
2018-02-22T03:22:56.774Z,78.31
2018-02-22T03:23:45.857Z,78.37
2018-02-22T03:24:34.892Z,79.22
2018-02-22T03:25:23.984Z,79.54
2018-02-22T03:26:13.035Z,79.58
2018-02-22T03:27:02.078Z,79.41
2018-02-22T03:27:51.126Z,79.91
2018-02-22T03:28:42.830Z,80.44
2018-02-22T03:29:32.088Z,80.68
2018-02-22T03:30:21.142Z,81.26
2018-02-22T03:31:10.207Z,81.76
2018-02-22T03:31:59.300Z,82.26
2018-02-22T03:32:48.325Z,82.82
2018-02-22T03:33:37.384Z,82.67
2018-02-22T03:34:26.481Z,82.72
2018-02-22T03:35:15.528Z,82.87
2018-02-22T03:36:04.593Z,83.08
2018-02-22T03:36:53.641Z,83.05
2018-02-22T03:37:42.736Z,82.32
2018-02-22T03:38:31.876Z,81.80
2018-02-22T03:39:20.929Z,81.53
2018-02-22T03:40:09.971Z,81.64
2018-02-22T03:40:59.044Z,81.77
2018-02-22T03:41:48.083Z,82.04
2018-02-22T03:42:37.119Z,81.90
2018-02-22T03:43:26.168Z,81.85
2018-02-22T03:44:15.263Z,82.23
2018-02-22T03:45:04.314Z,82.59
2018-02-22T03:45:53.364Z,82.54
2018-02-22T03:46:42.781Z,82.59
2018-02-22T03:47:31.829Z,82.71
2018-02-22T03:48:20.861Z,82.63
2018-02-22T03:49:09.907Z,82.56
2018-02-22T03:49:58.956Z,82.42
2018-02-22T03:50:48.010Z,82.41
2018-02-22T03:51:37.084Z,82.15
2018-02-22T03:52:26.134Z,81.87
2018-02-22T03:53:15.187Z,81.71
2018-02-22T03:54:04.214Z,81.94
2018-02-22T03:54:53.263Z,82.24
2018-02-22T03:55:42.310Z,82.29
2018-02-22T03:56:31.351Z,82.47
2018-02-22T03:57:20.573Z,82.67
2018-02-22T03:58:09.630Z,82.87
2018-02-22T03:58:58.670Z,83.04
2018-02-22T03:59:47.713Z,83.22
2018-02-22T04:00:36.776Z,83.15
2018-02-22T04:01:25.813Z,82.89
2018-02-22T04:02:14.862Z,82.41
2018-02-22T04:03:03.935Z,82.00
2018-02-22T04:03:52.998Z,81.96
2018-02-22T04:04:42.076Z,80.33
2018-02-22T04:05:31.330Z,79.87
2018-02-22T04:06:20.380Z,80.20
2018-02-22T04:07:09.428Z,80.44
2018-02-22T04:07:58.710Z,80.49
2018-02-22T04:08:48.001Z,80.86
2018-02-22T04:09:37.056Z,80.68
2018-02-22T04:10:26.102Z,80.38
2018-02-22T04:11:15.143Z,80.50
2018-02-22T04:12:04.209Z,79.22
2018-02-22T04:12:53.245Z,79.61
2018-02-22T04:13:42.353Z,80.33
2018-02-22T04:14:31.451Z,80.48
2018-02-22T04:15:20.483Z,80.42
2018-02-22T04:16:09.526Z,80.55
2018-02-22T04:16:58.609Z,80.65
2018-02-22T04:17:47.646Z,80.66
2018-02-22T04:18:36.688Z,80.74
2018-02-22T04:19:25.761Z,80.77
2018-02-22T04:20:14.829Z,80.55
2018-02-22T04:21:06.250Z,80.46
2018-02-22T04:21:55.477Z,80.37
2018-02-22T04:22:44.514Z,80.60
2018-02-22T04:23:33.554Z,80.67
2018-02-22T04:24:22.606Z,80.65
2018-02-22T04:25:11.649Z,80.73
2018-02-22T04:26:00.696Z,80.81
2018-02-22T04:26:49.736Z,80.55
2018-02-22T04:27:38.835Z,80.52
2018-02-22T04:28:27.871Z,80.43
2018-02-22T04:29:17.273Z,80.61
2018-02-22T04:30:06.344Z,80.70
2018-02-22T04:30:55.392Z,80.74
2018-02-22T04:31:44.436Z,79.77
2018-02-22T04:32:33.491Z,79.96
2018-02-22T04:33:22.764Z,79.55
2018-02-22T04:34:11.812Z,79.12
2018-02-22T04:35:00.866Z,78.91
2018-02-22T04:35:49.916Z,78.55
2018-02-22T04:36:38.975Z,79.24
2018-02-22T04:37:28.113Z,79.11
2018-02-22T04:38:17.169Z,78.85
2018-02-22T04:39:06.222Z,79.02
2018-02-22T04:39:55.263Z,79.34
2018-02-22T04:40:44.312Z,79.37
2018-02-22T04:41:33.384Z,79.51
2018-02-22T04:42:22.450Z,80.00
2018-02-22T04:43:11.554Z,79.78
2018-02-22T04:44:00.603Z,80.00
2018-02-22T04:44:49.646Z,79.96
2018-02-22T04:45:38.690Z,80.12
2018-02-22T04:46:27.726Z,80.83
2018-02-22T04:47:16.779Z,80.25
2018-02-22T04:48:05.865Z,80.56
2018-02-22T04:48:54.922Z,80.56
2018-02-22T04:49:43.959Z,79.62
2018-02-22T04:50:33.009Z,80.39
2018-02-22T04:51:22.061Z,80.31
2018-02-22T04:52:11.117Z,80.20
2018-02-22T04:53:00.173Z,79.55
2018-02-22T04:53:49.440Z,79.95
2018-02-22T04:54:38.500Z,80.24
2018-02-22T04:55:27.552Z,79.27
2018-02-22T04:56:16.695Z,79.53
2018-02-22T04:57:05.740Z,79.96
2018-02-22T04:57:54.797Z,80.36
2018-02-22T04:58:43.858Z,80.72
2018-02-22T04:59:32.906Z,80.59
2018-02-22T05:00:21.956Z,80.63
2018-02-22T05:01:11.036Z,80.77
2018-02-22T05:02:03.179Z,80.66
2018-02-22T05:02:52.214Z,81.24
2018-02-22T05:03:41.304Z,82.02
2018-02-22T05:04:30.343Z,82.52
2018-02-22T05:05:19.396Z,82.75
2018-02-22T05:06:08.445Z,83.22
2018-02-22T05:06:57.505Z,83.77
2018-02-22T05:07:46.557Z,84.15
2018-02-22T05:08:35.608Z,84.30
2018-02-22T05:09:24.966Z,84.06
2018-02-22T05:10:14.002Z,84.31
2018-02-22T05:11:03.048Z,84.36
2018-02-22T05:11:52.096Z,84.66
2018-02-22T05:12:41.147Z,84.81
2018-02-22T05:13:30.238Z,84.71
2018-02-22T05:14:19.293Z,84.62
2018-02-22T05:15:08.349Z,84.78
2018-02-22T05:15:57.385Z,84.80
2018-02-22T05:16:46.456Z,84.55
2018-02-22T05:17:35.498Z,84.26
2018-02-22T05:18:24.544Z,82.73
2018-02-22T05:19:13.594Z,82.59
2018-02-22T05:20:02.639Z,82.21
2018-02-22T05:20:51.694Z,81.90
2018-02-22T05:21:40.742Z,81.91
2018-02-22T05:22:29.901Z,82.30
2018-02-22T05:23:18.960Z,82.46
2018-02-22T05:24:08.014Z,82.68
2018-02-22T05:24:57.075Z,82.31
2018-02-22T05:25:46.130Z,82.45
2018-02-22T05:26:35.173Z,82.75
2018-02-22T05:27:24.226Z,83.03
2018-02-22T05:28:13.660Z,83.61
2018-02-22T05:29:02.722Z,83.99
2018-02-22T05:29:51.804Z,84.22
2018-02-22T05:30:40.860Z,84.47
2018-02-22T05:31:29.898Z,84.67
2018-02-22T05:32:18.928Z,84.96
2018-02-22T05:33:07.998Z,84.72
2018-02-22T05:33:57.066Z,84.61
2018-02-22T05:34:46.115Z,84.54
2018-02-22T05:35:35.268Z,84.54
2018-02-22T05:36:24.320Z,84.18
2018-02-22T05:37:13.369Z,82.75
2018-02-22T05:38:02.420Z,82.49
2018-02-22T05:38:51.472Z,82.64
2018-02-22T05:39:40.526Z,83.29
2018-02-22T05:40:29.619Z,83.20
2018-02-22T05:41:18.770Z,83.24
2018-02-22T05:42:08.002Z,83.05
2018-02-22T05:42:57.054Z,82.99
2018-02-22T05:43:46.113Z,82.94
2018-02-22T05:44:35.230Z,82.95
2018-02-22T05:45:24.317Z,82.71
2018-02-22T05:46:13.373Z,82.95
2018-02-22T05:47:02.658Z,83.02
2018-02-22T05:47:51.737Z,82.77
2018-02-22T05:48:40.773Z,82.69
2018-02-22T05:49:29.806Z,81.98
2018-02-22T05:50:18.839Z,81.72
2018-02-22T05:51:07.870Z,81.94
2018-02-22T05:51:56.931Z,82.07
2018-02-22T05:52:46.005Z,81.80
2018-02-22T05:53:35.135Z,81.48
2018-02-22T05:54:24.184Z,81.15
2018-02-22T05:55:13.234Z,81.17
2018-02-22T05:56:02.277Z,82.13
2018-02-22T05:56:51.344Z,83.12
2018-02-22T05:57:40.510Z,80.48
2018-02-22T05:58:29.592Z,80.42
2018-02-22T05:59:18.642Z,81.35
2018-02-22T06:00:08.561Z,81.95
2018-02-22T06:00:57.966Z,82.08
2018-02-22T06:01:47.051Z,83.58
2018-02-22T06:02:36.143Z,83.59
2018-02-22T06:03:25.410Z,83.35
2018-02-22T06:04:14.472Z,82.96
2018-02-22T06:05:03.515Z,82.45
2018-02-22T06:05:52.554Z,81.71
2018-02-22T06:06:41.710Z,82.04
2018-02-22T06:07:30.758Z,81.77
2018-02-22T06:08:19.865Z,81.26
2018-02-22T06:09:08.932Z,80.94
2018-02-22T06:09:57.982Z,80.85
2018-02-22T06:10:47.055Z,80.93
2018-02-22T06:11:36.101Z,80.73
2018-02-22T06:12:25.154Z,80.97
2018-02-22T06:13:14.538Z,81.23
2018-02-22T06:14:03.585Z,80.62
2018-02-22T06:14:52.643Z,80.90
2018-02-22T06:15:41.703Z,81.00
2018-02-22T06:16:30.759Z,80.43
2018-02-22T06:17:19.831Z,80.26
2018-02-22T06:18:08.878Z,80.79
2018-02-22T06:18:58.961Z,81.00
2018-02-22T06:19:48.081Z,80.88
2018-02-22T06:20:37.122Z,80.87
2018-02-22T06:21:26.159Z,80.99
2018-02-22T06:22:15.259Z,80.59
2018-02-22T06:23:04.323Z,80.40
2018-02-22T06:23:53.379Z,80.56
2018-02-22T06:24:42.466Z,80.76
2018-02-22T06:25:31.511Z,80.84
2018-02-22T06:26:20.556Z,80.78
2018-02-22T06:27:09.596Z,80.47
2018-02-22T06:27:58.645Z,80.27
2018-02-22T06:28:47.691Z,80.67
2018-02-22T06:29:36.743Z,81.28
2018-02-22T06:30:25.949Z,81.75
2018-02-22T06:31:14.991Z,81.92
2018-02-22T06:32:04.978Z,82.22
2018-02-22T06:32:54.094Z,82.56
2018-02-22T06:33:43.152Z,82.55
2018-02-22T06:34:32.210Z,82.61
2018-02-22T06:35:21.256Z,82.04
2018-02-22T06:36:10.349Z,81.58
2018-02-22T06:36:59.416Z,81.05
2018-02-22T06:37:48.459Z,81.31
2018-02-22T06:38:37.500Z,81.57
2018-02-22T06:39:26.547Z,82.10
2018-02-22T06:40:15.595Z,82.45
2018-02-22T06:41:04.633Z,82.66
2018-02-22T06:41:54.011Z,82.88
2018-02-22T06:42:43.080Z,82.82
2018-02-22T06:43:32.119Z,82.52
2018-02-22T06:44:21.170Z,82.00
2018-02-22T06:45:10.232Z,82.04
2018-02-22T06:45:59.283Z,81.78
2018-02-22T06:46:48.324Z,81.19
2018-02-22T06:47:37.426Z,81.80
2018-02-22T06:48:26.496Z,82.17
2018-02-22T06:49:15.543Z,82.62
2018-02-22T06:50:04.580Z,83.09
2018-02-22T06:50:53.765Z,82.72
2018-02-22T06:51:42.810Z,82.92
2018-02-22T06:52:31.867Z,83.08
2018-02-22T06:53:20.913Z,82.58
2018-02-22T06:54:09.964Z,82.60
2018-02-22T06:54:59.024Z,82.43
2018-02-22T06:55:48.090Z,82.30
2018-02-22T06:56:37.192Z,82.74
2018-02-22T06:57:26.222Z,83.14
2018-02-22T06:58:15.301Z,82.73
2018-02-22T06:59:04.432Z,82.64
2018-02-22T06:59:53.511Z,81.86
2018-02-22T07:00:42.592Z,80.51
2018-02-22T07:01:31.644Z,79.83
2018-02-22T07:02:20.906Z,79.98
2018-02-22T07:03:09.951Z,80.03
2018-02-22T07:03:59.001Z,80.48
2018-02-22T07:04:48.094Z,80.16
2018-02-22T07:05:37.158Z,80.11
2018-02-22T07:06:26.244Z,80.52
2018-02-22T07:07:15.449Z,80.55
2018-02-22T07:08:04.512Z,80.44
2018-02-22T07:08:53.556Z,80.75
2018-02-22T07:09:42.621Z,80.97
2018-02-22T07:10:31.679Z,80.16
2018-02-22T07:11:20.721Z,80.05
2018-02-22T07:12:09.790Z,79.68
2018-02-22T07:12:58.872Z,79.94
2018-02-22T07:13:47.942Z,80.24
2018-02-22T07:14:36.997Z,80.53
2018-02-22T07:15:26.059Z,80.61
2018-02-22T07:16:15.101Z,80.42
2018-02-22T07:17:04.148Z,79.63
2018-02-22T07:17:53.190Z,79.23
2018-02-22T07:18:42.260Z,79.50
2018-02-22T07:19:31.310Z,79.78
2018-02-22T07:20:20.384Z,80.07
2018-02-22T07:21:09.431Z,79.60
2018-02-22T07:21:58.476Z,79.21
2018-02-22T07:22:47.527Z,78.58
2018-02-22T07:23:36.577Z,78.35
2018-02-22T07:24:27.475Z,78.06
2018-02-22T07:25:16.537Z,77.77
2018-02-22T07:26:05.643Z,77.94
2018-02-22T07:26:54.749Z,77.76
2018-02-22T07:27:43.795Z,77.92
2018-02-22T07:28:32.846Z,78.87
2018-02-22T07:29:21.960Z,79.07
2018-02-22T07:30:11.025Z,79.26
2018-02-22T07:31:00.089Z,79.35
2018-02-22T07:31:49.234Z,79.27
2018-02-22T07:32:38.275Z,79.25
2018-02-22T07:33:27.336Z,79.42
2018-02-22T07:34:16.436Z,79.39
2018-02-22T07:35:05.601Z,78.72
2018-02-22T07:35:54.654Z,78.66
2018-02-22T07:36:43.703Z,78.14
2018-02-22T07:37:32.807Z,77.76
2018-02-22T07:38:21.864Z,77.30
2018-02-22T07:39:10.919Z,77.99
2018-02-22T07:39:59.965Z,77.85
2018-02-22T07:40:49.171Z,78.24
2018-02-22T07:41:38.217Z,78.38
2018-02-22T07:42:30.346Z,78.42
2018-02-22T07:43:19.408Z,78.14
2018-02-22T07:44:08.473Z,76.49
2018-02-22T07:44:57.538Z,76.26
2018-02-22T07:45:46.592Z,76.62
2018-02-22T07:46:35.720Z,75.36
2018-02-22T07:47:24.781Z,76.88
2018-02-22T07:48:13.850Z,76.36
2018-02-22T07:49:02.921Z,76.96
2018-02-22T07:49:51.988Z,76.88
2018-02-22T07:50:41.038Z,76.40
2018-02-22T07:51:30.113Z,74.22
2018-02-22T07:52:19.380Z,75.53
2018-02-22T07:53:08.457Z,74.79
2018-02-22T07:53:57.494Z,74.39
2018-02-22T07:54:46.530Z,74.56
2018-02-22T07:55:35.570Z,74.70
2018-02-22T07:56:24.635Z,75.72
2018-02-22T07:57:13.784Z,74.21
2018-02-22T07:58:02.829Z,75.03
2018-02-22T07:58:51.858Z,74.34
2018-02-22T07:59:40.901Z,73.76
2018-02-22T08:00:29.944Z,73.82
2018-02-22T08:01:19.003Z,73.98
2018-02-22T08:02:08.060Z,73.77
2018-02-22T08:02:57.145Z,73.99
2018-02-22T08:03:46.201Z,74.04
2018-02-22T08:04:35.275Z,74.23
2018-02-22T08:05:24.315Z,74.58
2018-02-22T08:06:13.366Z,75.56
2018-02-22T08:07:02.461Z,75.47
2018-02-22T08:07:51.517Z,75.37
2018-02-22T08:08:40.740Z,74.59
2018-02-22T08:09:29.793Z,75.40
2018-02-22T08:10:18.857Z,74.98
2018-02-22T08:11:07.926Z,75.45
2018-02-22T08:11:57.008Z,75.53
2018-02-22T08:12:46.076Z,73.82
2018-02-22T08:13:35.127Z,75.09
2018-02-22T08:14:25.204Z,74.74
2018-02-22T08:15:14.261Z,74.88
2018-02-22T08:16:03.316Z,74.85
2018-02-22T08:16:52.380Z,74.75
2018-02-22T08:17:41.519Z,75.83
2018-02-22T08:18:30.581Z,75.00
2018-02-22T08:19:19.618Z,74.28
2018-02-22T08:20:08.644Z,72.51
2018-02-22T08:20:57.678Z,74.16
2018-02-22T08:21:46.743Z,74.31
2018-02-22T08:22:35.787Z,73.12
2018-02-22T08:23:24.922Z,74.79
2018-02-22T08:24:14.033Z,73.17
2018-02-22T08:25:03.089Z,73.65
2018-02-22T08:25:52.234Z,73.54
2018-02-22T08:26:41.375Z,73.16
2018-02-22T08:27:30.431Z,73.83
2018-02-22T08:28:19.487Z,73.12
2018-02-22T08:29:08.541Z,72.62
2018-02-22T08:29:57.596Z,71.87
2018-02-22T08:30:46.641Z,73.33
2018-02-22T08:31:35.679Z,73.91
2018-02-22T08:32:24.772Z,74.58
2018-02-22T08:33:13.829Z,74.82
2018-02-22T08:34:02.893Z,72.58
2018-02-22T08:34:51.961Z,74.10
2018-02-22T08:35:41.010Z,74.07
2018-02-22T08:36:30.085Z,73.69
2018-02-22T08:37:19.143Z,73.13
2018-02-22T08:38:08.275Z,73.24
2018-02-22T08:38:57.315Z,73.24
2018-02-22T08:39:46.370Z,73.17
2018-02-22T08:40:35.405Z,74.63
2018-02-22T08:41:24.454Z,74.67
2018-02-22T08:42:13.521Z,76.58
2018-02-22T08:43:02.567Z,71.67
2018-02-22T08:43:51.641Z,74.77
2018-02-22T08:44:40.730Z,72.52
2018-02-22T08:45:29.753Z,73.63
2018-02-22T08:46:18.796Z,73.89
2018-02-22T08:47:07.847Z,73.17
2018-02-22T08:47:56.900Z,73.35
2018-02-22T08:48:45.950Z,72.65
2018-02-22T08:49:35.218Z,72.62
2018-02-22T08:50:25.364Z,73.10
2018-02-22T08:51:14.430Z,73.22
2018-02-22T08:52:03.503Z,72.90
2018-02-22T08:52:52.569Z,72.74
2018-02-22T08:53:41.620Z,72.72
2018-02-22T08:54:30.774Z,74.15
2018-02-22T08:55:19.833Z,74.96
2018-02-22T08:56:08.887Z,73.38
2018-02-22T08:56:57.931Z,73.20
2018-02-22T08:57:46.967Z,74.00
2018-02-22T08:58:36.025Z,73.69
2018-02-22T08:59:25.183Z,74.72
2018-02-22T09:00:14.271Z,75.87
2018-02-22T09:01:03.318Z,75.32
2018-02-22T09:01:52.355Z,76.80
2018-02-22T09:02:41.401Z,73.62
2018-02-22T09:03:30.459Z,74.11
2018-02-22T09:04:19.495Z,73.35
2018-02-22T09:05:08.552Z,73.60
2018-02-22T09:05:57.852Z,74.37
2018-02-22T09:06:46.888Z,74.04
2018-02-22T09:07:35.931Z,73.02
2018-02-22T09:08:24.974Z,74.84
2018-02-22T09:09:14.058Z,74.45
2018-02-22T09:10:03.106Z,74.19
2018-02-22T09:10:52.219Z,72.89
2018-02-22T09:11:41.256Z,72.15
2018-02-22T09:12:30.302Z,70.14
2018-02-22T09:13:19.436Z,70.67
2018-02-22T09:14:08.600Z,71.17
2018-02-22T09:14:57.666Z,68.96
2018-02-22T09:15:46.735Z,70.28
2018-02-22T09:16:35.809Z,69.29
2018-02-22T09:17:24.848Z,70.08
2018-02-22T09:18:13.887Z,69.97
2018-02-22T09:19:12.910Z,69.54
2018-02-22T09:20:02.086Z,69.73
2018-02-22T09:20:51.215Z,68.47
2018-02-22T09:21:40.309Z,70.87
2018-02-22T09:22:29.411Z,72.27
2018-02-22T09:23:18.533Z,71.25
2018-02-22T09:24:07.643Z,68.90
2018-02-22T09:24:57.934Z,71.57
2018-02-22T09:25:47.003Z,72.26
2018-02-22T09:26:36.069Z,71.84
2018-02-22T09:27:25.168Z,69.63
2018-02-22T09:28:14.224Z,69.76
2018-02-22T09:29:03.272Z,68.98
2018-02-22T09:29:52.408Z,69.97
2018-02-22T09:31:55.893Z,69.62
2018-02-22T09:32:44.959Z,68.89
2018-02-22T09:33:34.004Z,69.03
2018-02-22T09:34:23.051Z,69.23
2018-02-22T09:35:12.178Z,70.18
2018-02-22T09:36:01.276Z,69.01
2018-02-22T09:36:50.338Z,68.51
2018-02-22T09:37:39.382Z,71.12
2018-02-22T09:38:28.442Z,72.05
2018-02-22T09:39:17.494Z,71.70
2018-02-22T09:40:06.548Z,72.08
2018-02-22T09:40:55.618Z,72.16
2018-02-22T09:41:44.682Z,71.94
2018-02-22T09:42:33.737Z,73.87
2018-02-22T09:43:22.783Z,72.17
2018-02-22T09:44:11.845Z,72.74
2018-02-22T09:45:01.155Z,70.92
2018-02-22T09:45:50.206Z,71.13
2018-02-22T09:46:39.571Z,70.64
2018-02-22T09:47:28.624Z,71.91
2018-02-22T09:48:17.687Z,71.22
2018-02-22T09:49:06.723Z,71.01
2018-02-22T09:49:56.048Z,69.36
2018-02-22T09:50:45.088Z,69.50
2018-02-22T09:51:34.140Z,69.34
2018-02-22T09:52:23.233Z,67.13
2018-02-22T09:53:12.278Z,69.33
2018-02-22T09:54:01.312Z,65.71
2018-02-22T09:54:50.361Z,66.39
2018-02-22T09:55:39.411Z,67.60
2018-02-22T09:56:28.603Z,67.61
2018-02-22T09:57:17.643Z,66.99
2018-02-22T09:58:06.689Z,65.42
2018-02-22T09:58:55.735Z,65.85
2018-02-22T09:59:44.768Z,67.66
2018-02-22T10:00:33.808Z,66.93
2018-02-22T10:01:22.856Z,67.10
2018-02-22T10:02:11.938Z,67.60
2018-02-22T10:03:00.975Z,66.42
2018-02-22T10:03:50.013Z,67.38
2018-02-22T10:04:39.075Z,66.79
2018-02-22T10:05:28.137Z,67.15
2018-02-22T10:06:17.227Z,67.15
2018-02-22T10:07:06.263Z,68.24
2018-02-22T10:07:55.339Z,67.71
2018-02-22T10:08:44.387Z,65.77
2018-02-22T10:09:33.432Z,65.26
2018-02-22T10:10:22.506Z,65.53
2018-02-22T10:11:11.559Z,65.06
2018-02-22T10:12:00.615Z,63.01
2018-02-22T10:12:49.734Z,63.31
2018-02-22T10:13:39.720Z,63.71
2018-02-22T10:14:28.803Z,63.70
2018-02-22T10:15:17.854Z,64.36
2018-02-22T10:16:06.902Z,63.74
2018-02-22T10:16:55.949Z,63.75
2018-02-22T10:17:44.996Z,63.23
2018-02-22T10:18:34.103Z,63.87
2018-02-22T10:19:23.192Z,63.54
2018-02-22T10:20:12.253Z,62.07
2018-02-22T10:21:01.318Z,62.00
2018-02-22T10:21:50.376Z,61.57
2018-02-22T10:22:39.448Z,61.45
2018-02-22T10:23:28.500Z,59.76
2018-02-22T10:24:17.572Z,61.00
2018-02-22T10:25:06.655Z,59.90
2018-02-22T10:25:55.715Z,60.58
2018-02-22T10:26:44.758Z,61.26
2018-02-22T10:27:33.802Z,60.61
2018-02-22T10:28:22.851Z,61.58
2018-02-22T10:29:11.895Z,61.74
2018-02-22T10:30:00.941Z,61.37
2018-02-22T10:30:50.109Z,63.02
2018-02-22T10:31:39.157Z,62.13
2018-02-22T10:32:28.201Z,61.95
2018-02-22T10:33:17.267Z,62.11
2018-02-22T10:34:06.335Z,63.67